Time;durP1;ratioP1;P1;durP2;ratioP2;P2;SDS_P1;SDS_P2;PMS_P1;PMS_P2;Temp;Humidity;BMP_temperature;BMP_pressure;BME280_temperature;BME280_humidity;BME280_pressure;Samples;Min_cycle;Max_cycle;Signal;HPM_P1;HPM_P2
2022/11/19 00:01:08;;;;;;;39.95;28.98;;;;;;;9.79;100.00;99201.16;5028320;28;20435;-75
2022/11/19 00:03:35;;;;;;;43.05;29.77;;;;;;;9.26;100.00;99122.56;5028546;28;20124;-75
2022/11/19 00:06:07;;;;;;;39.53;26.98;;;;;;;9.34;100.00;99109.38;5020262;28;20048;-77
2022/11/19 00:08:33;;;;;;;46.83;29.25;;;;;;;10.01;100.00;99216.50;4999333;28;20520;-75
2022/11/19 00:11:13;;;;;;;40.40;31.38;;;;;;;9.42;100.00;99096.13;5010949;28;20045;-76
2022/11/19 00:13:39;;;;;;;40.80;28.25;;;;;;;9.40;100.00;99098.78;5009476;28;20046;-75
2022/11/19 00:16:08;;;;;;;43.85;30.90;;;;;;;9.57;100.00;99126.44;5003056;28;20042;-77
2022/11/19 00:18:34;;;;;;;40.13;27.50;;;;;;;10.11;100.00;99205.84;4975268;28;20046;-75
2022/11/19 00:21:08;;;;;;;39.78;29.17;;;;;;;9.61;100.00;99141.22;5007595;28;20405;-75
2022/11/19 00:23:34;;;;;;;42.03;29.60;;;;;;;10.22;100.00;99247.59;5006479;28;20081;-75
2022/11/19 00:26:04;;;;;;;42.78;30.10;;;;;;;9.81;100.00;99198.50;5007875;28;20073;-75
2022/11/19 00:28:30;;;;;;;39.13;27.02;;;;;;;10.12;100.00;99251.28;5006198;28;20052;-75
2022/11/19 00:31:00;;;;;;;37.28;30.60;;;;;;;9.47;100.00;99141.44;5008035;28;20030;-75
2022/11/19 00:33:25;;;;;;;33.90;26.20;;;;;;;9.46;100.00;99126.63;4999860;28;20042;-76
2022/11/19 00:35:55;;;;;;;38.85;29.23;;;;;;;9.99;100.00;99226.16;4970661;28;20050;-76
2022/11/19 00:38:20;;;;;;;42.35;31.20;;;;;;;10.08;100.00;99258.31;4970500;28;20046;-75
2022/11/19 00:40:46;;;;;;;43.60;29.48;;;;;;;9.49;100.00;99189.41;4988137;28;20560;-75
2022/11/19 00:45:55;;;;;;;39.22;27.92;;;;;;;10.13;100.00;99253.00;4987937;28;20164;-75
2022/11/19 00:48:22;;;;;;;38.42;27.40;;;;;;;10.00;100.00;99254.09;4995980;28;20054;-75
2022/11/19 00:50:47;;;;;;;46.45;32.25;;;;;;;10.11;100.00;99281.88;5006447;28;20405;-76
2022/11/19 00:53:13;;;;;;;39.58;27.33;;;;;;;10.02;100.00;99262.78;5007344;28;20076;-77
2022/11/19 00:55:38;;;;;;;43.08;29.25;;;;;;;9.99;100.00;99284.66;5014790;28;20105;-76
2022/11/19 00:58:04;;;;;;;39.90;30.35;;;;;;;9.42;100.00;99185.16;5008739;28;20100;-77
2022/11/19 01:00:30;;;;;;;37.97;28.02;;;;;;;10.03;100.00;99261.91;5003666;28;20794;-74
2022/11/19 01:02:56;;;;;;;47.38;31.52;;;;;;;9.89;100.00;99281.31;4986422;28;20057;-76
2022/11/19 01:05:23;;;;;;;43.88;29.88;;;;;;;9.93;100.00;99284.78;4990892;28;20080;-75
2022/11/19 01:07:49;;;;;;;41.75;30.60;;;;;;;10.03;100.00;99293.34;5013929;28;20100;-73
2022/11/19 01:10:15;;;;;;;42.20;29.25;;;;;;;9.46;100.00;99192.09;5006168;28;20042;-76
2022/11/19 01:15:24;;;;;;;50.95;30.10;;;;;;;9.26;100.00;99211.53;5027257;28;20040;-76
2022/11/19 01:17:49;;;;;;;43.05;30.15;;;;;;;9.70;100.00;99283.34;5011620;28;20050;-76
2022/11/19 01:20:16;;;;;;;53.13;33.00;;;;;;;9.42;100.00;99235.75;5002611;28;20601;-76
2022/11/19 01:22:41;;;;;;;44.17;30.50;;;;;;;9.31;100.00;99250.75;5006457;28;20414;-75
2022/11/19 01:25:07;;;;;;;49.95;32.33;;;;;;;9.75;100.00;99338.31;5006370;28;20064;-75
2022/11/19 01:27:33;;;;;;;45.22;32.05;;;;;;;9.78;100.00;99337.38;5006470;28;20030;-75
2022/11/19 01:29:58;;;;;;;45.70;33.58;;;;;;;9.12;100.00;99236.19;5006090;28;20042;-75
2022/11/19 01:32:24;;;;;;;43.92;33.45;;;;;;;9.75;100.00;99355.78;5004035;28;20593;-75
2022/11/19 01:34:50;;;;;;;56.53;35.97;;;;;;;9.09;100.00;99255.41;5002542;28;20402;-75
2022/11/19 01:37:15;;;;;;;47.03;34.65;;;;;;;9.60;100.00;99360.34;5001425;28;20613;-75
2022/11/19 01:39:41;;;;;;;55.00;36.63;;;;;;;9.60;100.00;99381.28;4993000;28;20034;-75
2022/11/19 01:42:48;;;;;;;53.70;33.53;;;;;;;8.44;100.00;99200.38;5000162;28;20026;-76
2022/11/19 01:45:07;;;;;;;46.72;35.45;;;;;;;9.29;100.00;99339.78;5006466;28;20497;-76
2022/11/19 01:47:32;;;;;;;48.53;35.33;;;;;;;8.77;100.00;99250.56;4998927;28;20781;-75
2022/11/19 01:49:58;;;;;;;55.35;37.00;;;;;;;9.32;100.00;99333.66;4998006;28;20073;-74
2022/11/19 01:52:24;;;;;;;50.35;37.40;;;;;;;9.40;100.00;99373.66;5006438;28;20046;-73
2022/11/19 01:54:52;;;;;;;56.10;36.05;;;;;;;9.40;100.00;99378.91;5006820;28;20144;-74
2022/11/19 01:57:18;;;;;;;53.95;35.00;;;;;;;9.24;100.00;99356.41;5024867;28;20033;-73
2022/11/19 01:59:48;;;;;;;57.00;38.17;;;;;;;8.62;100.00;99273.38;5003719;28;20057;-73
2022/11/19 02:02:14;;;;;;;48.08;34.53;;;;;;;8.79;100.00;99294.13;5001237;28;20567;-74
2022/11/19 02:04:39;;;;;;;52.88;33.60;;;;;;;9.35;100.00;99388.56;5006960;28;20054;-76
2022/11/19 02:07:08;;;;;;;64.47;39.50;;;;;;;9.13;100.00;99350.44;5014504;28;20053;-76
2022/11/19 02:09:34;;;;;;;55.50;35.20;;;;;;;9.26;100.00;99397.38;5014534;28;20106;-76
2022/11/19 02:12:02;;;;;;;55.33;36.38;;;;;;;9.30;100.00;99421.78;5019381;28;20084;-76
2022/11/19 02:14:40;;;;;;;56.28;38.08;;;;;;;9.20;100.00;99393.97;5015916;28;20054;-75
2022/11/19 02:17:12;;;;;;;55.83;36.92;;;;;;;9.27;100.00;99434.91;5005298;28;20078;-74
2022/11/19 02:19:51;;;;;;;52.75;35.83;;;;;;;9.29;100.00;99439.25;5006481;28;20117;-74
2022/11/19 02:22:35;;;;;;;48.63;35.58;;;;;;;9.27;100.00;99435.78;4992312;28;20132;-76
2022/11/19 02:25:33;;;;;;;48.65;36.15;;;;;;;9.30;100.00;99445.34;5005056;28;20200;-74
2022/11/19 02:28:36;;;;;;;57.45;36.67;;;;;;;9.26;100.00;99441.03;4965836;28;20135;-75
2022/11/19 02:31:18;;;;;;;50.63;34.92;;;;;;;9.38;100.00;99460.97;4996667;28;20045;-76
2022/11/19 02:34:19;;;;;;;58.38;34.42;;;;;;;8.49;100.00;99342.34;5019009;28;20036;-77
2022/11/19 02:36:59;;;;;;;55.30;34.97;;;;;;;9.01;100.00;99407.28;4984848;28;20050;-75
2022/11/19 02:39:34;;;;;;;51.38;35.83;;;;;;;9.16;100.00;99428.94;4992507;28;20034;-75
2022/11/19 02:42:22;;;;;;;52.10;35.42;;;;;;;9.27;100.00;99450.59;4993344;28;20077;-76
2022/11/19 02:44:58;;;;;;;53.42;36.15;;;;;;;8.47;100.00;99304.91;5000806;28;20046;-76
2022/11/19 02:47:54;;;;;;;49.45;33.75;;;;;;;9.22;100.00;99455.03;4991621;28;20038;-76
2022/11/19 02:50:29;;;;;;;47.45;33.58;;;;;;;9.21;100.00;99458.53;5001721;28;20058;-74
2022/11/19 02:52:55;;;;;;;47.20;32.92;;;;;;;9.25;100.00;99465.47;4988749;28;20050;-76
2022/11/19 02:55:22;;;;;;;50.33;33.30;;;;;;;9.17;100.00;99465.53;4998924;28;20045;-76
2022/11/19 02:57:56;;;;;;;55.42;36.90;;;;;;;9.24;100.00;99471.59;5029151;28;20061;-76
2022/11/19 03:06:10;;;;;;;45.38;31.85;;;;;;;9.23;100.00;99481.19;4973166;28;20141;-75
2022/11/19 03:08:36;;;;;;;43.85;31.08;;;;;;;8.52;100.00;99359.75;4980601;28;20062;-75
2022/11/19 03:11:30;;;;;;;44.88;31.95;;;;;;;9.34;100.00;99504.66;4971231;28;20054;-75
2022/11/19 03:17:14;;;;;;;55.67;33.75;;;;;;;9.22;100.00;99538.78;4987347;28;20112;-74
2022/11/19 03:19:47;;;;;;;48.55;34.42;;;;;;;9.11;100.00;99519.69;4988442;28;20050;-73
2022/11/19 03:22:21;;;;;;;;;;;;;;;9.17;100.00;99535.34;5008107;28;20049;-74
2022/11/19 03:25:09;;;;;;;47.60;35.35;;;;;;;9.17;100.00;99548.44;4973716;28;19918;-75
2022/11/19 03:27:42;;;;;;;56.10;36.95;;;;;;;8.97;100.00;99530.28;4986965;28;20107;-75
2022/11/19 03:30:09;;;;;;;48.38;35.58;;;;;;;7.28;100.00;99257.00;4986810;28;20503;-76
2022/11/19 03:32:40;;;;;;;53.15;35.95;;;;;;;9.03;100.00;99572.09;4986395;28;20057;-76
2022/11/19 03:35:15;;;;;;;57.45;39.70;;;;;;;9.06;100.00;99599.13;4958765;28;20153;-76
2022/11/19 03:37:44;;;;;;;58.97;37.95;;;;;;;8.95;100.00;99595.69;4982783;28;20058;-76
2022/11/19 03:40:14;;;;;;;54.90;37.20;;;;;;;9.01;100.00;99600.00;4977672;28;20046;-76
2022/11/19 03:42:42;;;;;;;52.15;36.65;;;;;;;7.92;100.00;99469.88;4970865;28;20034;-76
2022/11/19 03:45:14;;;;;;;56.88;37.67;;;;;;;8.88;100.00;99604.47;4989058;28;20036;-76
2022/11/19 03:47:41;;;;;;;52.10;35.60;;;;;;;8.66;100.00;99569.69;5004028;28;20046;-76
2022/11/19 03:50:16;;;;;;;53.35;34.38;;;;;;;7.89;100.00;99459.44;4979064;28;20074;-75
2022/11/19 03:52:42;;;;;;;55.95;36.78;;;;;;;8.73;100.00;99591.47;4987217;28;20741;-76
2022/11/19 03:55:09;;;;;;;52.83;35.90;;;;;;;8.79;100.00;99631.53;4968192;28;20050;-75
2022/11/19 03:57:34;;;;;;;47.47;35.17;;;;;;;8.80;100.00;99619.31;4987889;28;20109;-75
2022/11/19 04:00:00;;;;;;;51.85;36.30;;;;;;;8.28;100.00;99525.44;4980822;28;20061;-73
2022/11/19 04:02:25;;;;;;;44.08;32.30;;;;;;;8.15;100.00;99512.44;5002078;28;20064;-75
2022/11/19 04:04:51;;;;;;;43.50;32.63;;;;;;;8.15;100.00;99504.63;4976465;28;20698;-75
2022/11/19 04:07:21;;;;;;;47.92;32.25;;;;;;;8.06;100.00;99491.59;4990701;28;20044;-76
2022/11/19 04:09:47;;;;;;;44.53;31.70;;;;;;;8.35;100.00;99521.94;5000242;28;20026;-75
2022/11/19 04:12:22;;;;;;;45.83;31.15;;;;;;;8.13;100.00;99511.59;4986625;28;20680;-75
2022/11/19 04:14:48;;;;;;;40.13;30.23;;;;;;;8.32;100.00;99546.34;4984770;28;20081;-75
2022/11/19 04:17:14;;;;;;;48.42;33.50;;;;;;;8.88;100.00;99639.34;4988451;28;20054;-75
2022/11/19 04:19:40;;;;;;;43.55;29.23;;;;;;;8.33;100.00;99552.41;4985827;28;20094;-77
2022/11/19 04:22:05;;;;;;;38.10;29.65;;;;;;;8.44;100.00;99546.28;4988188;28;20406;-75
2022/11/19 04:24:31;;;;;;;44.65;28.25;;;;;;;8.25;100.00;99523.72;4988556;28;20220;-74
2022/11/19 04:26:56;;;;;;;37.70;29.25;;;;;;;9.01;100.00;99647.09;4988572;28;20407;-75
2022/11/19 04:29:22;;;;;;;40.88;29.98;;;;;;;9.06;100.00;99671.50;4991623;28;20050;-75
2022/11/19 04:31:47;;;;;;;41.33;28.90;;;;;;;9.00;100.00;99672.41;4986538;28;20065;-75
2022/11/19 04:34:13;;;;;;;34.58;27.67;;;;;;;8.87;100.00;99641.94;4979239;28;20109;-77
2022/11/19 04:36:40;;;;;;;35.97;27.63;;;;;;;8.43;100.00;99565.50;4981813;28;20046;-76
2022/11/19 04:39:07;;;;;;;40.45;25.95;;;;;;;9.00;100.00;99664.56;4969772;28;20030;-75
2022/11/19 04:41:33;;;;;;;36.92;26.80;;;;;;;8.39;100.00;99562.88;4975527;28;20137;-74
2022/11/19 04:43:59;;;;;;;34.05;25.33;;;;;;;8.32;100.00;99566.38;4977079;28;20514;-75
2022/11/19 04:46:24;;;;;;;39.42;27.35;;;;;;;8.86;100.00;99648.06;4974200;28;20043;-75
2022/11/19 04:48:50;;;;;;;33.92;25.52;;;;;;;8.73;100.00;99622.84;4972574;28;20466;-73
2022/11/19 04:51:15;;;;;;;36.17;23.90;;;;;;;9.05;100.00;99685.47;4988070;28;20718;-74
2022/11/19 04:53:41;;;;;;;33.30;23.65;;;;;;;9.01;100.00;99682.03;4994288;28;20058;-74
2022/11/19 04:56:06;;;;;;;34.42;24.17;;;;;;;8.45;100.00;99608.19;4975072;28;20753;-74
2022/11/19 04:58:32;;;;;;;30.75;22.50;;;;;;;8.34;100.00;99569.88;4971785;28;20056;-73
2022/11/19 05:00:58;;;;;;;33.28;23.90;;;;;;;8.33;100.00;99582.03;5006823;28;20038;-75
2022/11/19 05:03:23;;;;;;;28.00;23.27;;;;;;;8.41;100.00;99601.22;5015923;28;20069;-73
2022/11/19 05:05:49;;;;;;;28.30;23.45;;;;;;;9.13;100.00;99712.47;5004859;28;20416;-75
2022/11/19 05:08:14;;;;;;;30.08;22.13;;;;;;;8.45;100.00;99588.97;5022832;28;20046;-74
2022/11/19 05:10:40;;;;;;;36.72;22.92;;;;;;;9.15;100.00;99715.94;5026668;28;20045;-74
2022/11/19 05:13:05;;;;;;;30.75;21.77;;;;;;;8.60;100.00;99615.06;5006198;28;20123;-74
2022/11/19 05:15:31;;;;;;;30.98;23.48;;;;;;;8.41;100.00;99601.22;5007315;28;20048;-75
2022/11/19 05:17:56;;;;;;;27.23;19.85;;;;;;;8.50;100.00;99597.69;5005672;28;20057;-76
2022/11/19 05:20:21;;;;;;;30.50;21.67;;;;;;;9.08;100.00;99709.00;4996306;28;20061;-77
2022/11/19 05:22:47;;;;;;;29.65;19.45;;;;;;;8.65;100.00;99615.06;4998844;28;20050;-76
2022/11/19 05:25:13;;;;;;;29.60;21.52;;;;;;;9.13;100.00;99707.25;4987315;28;20105;-75
2022/11/19 05:27:38;;;;;;;28.25;20.83;;;;;;;9.10;100.00;99709.84;5001082;28;20038;-75
2022/11/19 05:30:05;;;;;;;24.13;18.50;;;;;;;8.40;100.00;99569.84;5008432;28;20401;-76
2022/11/19 05:32:30;;;;;;;26.85;19.10;;;;;;;9.14;100.00;99714.22;5006827;28;20174;-74
2022/11/19 05:34:55;;;;;;;22.13;15.55;;;;;;;8.68;100.00;99615.03;5005786;28;20050;-76
2022/11/19 05:37:21;;;;;;;27.77;20.13;;;;;;;8.72;100.00;99623.75;5006738;28;20049;-75
2022/11/19 05:39:46;;;;;;;25.65;18.08;;;;;;;9.43;100.00;99761.16;5019650;28;20065;-75
2022/11/19 05:42:12;;;;;;;25.92;18.83;;;;;;;9.18;100.00;99726.41;5026366;28;20489;-75
2022/11/19 05:44:37;;;;;;;25.60;17.88;;;;;;;9.44;100.00;99776.00;5026105;28;20059;-75
2022/11/19 05:47:03;;;;;;;20.73;16.27;;;;;;;9.52;100.00;99768.94;5026030;28;20056;-75
2022/11/19 05:49:28;;;;;;;24.42;16.65;;;;;;;9.34;100.00;99774.31;5019063;28;20525;-75
2022/11/19 05:51:54;;;;;;;21.20;16.98;;;;;;;9.40;100.00;99789.97;4992143;28;20075;-75
2022/11/19 05:54:19;;;;;;;21.50;15.50;;;;;;;9.37;100.00;99795.25;5028784;28;20045;-75
2022/11/19 05:56:44;;;;;;;22.70;17.35;;;;;;;9.43;100.00;99791.72;5023633;28;20052;-75
2022/11/19 05:59:10;;;;;;;20.42;16.70;;;;;;;9.27;100.00;99762.13;5008675;28;20536;-75
2022/11/19 06:01:35;;;;;;;20.70;17.52;;;;;;;9.27;100.00;99794.41;5012942;28;20763;-75
2022/11/19 06:04:01;;;;;;;26.55;17.95;;;;;;;8.50;100.00;99634.31;5024834;28;20049;-75
2022/11/19 06:06:26;;;;;;;24.95;18.45;;;;;;;8.59;100.00;99662.13;5011839;28;20436;-75
2022/11/19 06:08:52;;;;;;;23.20;15.88;;;;;;;8.88;100.00;99722.19;5028584;28;20124;-75
2022/11/19 06:14:01;;;;;;;22.02;17.25;;;;;;;9.48;100.00;99809.16;5007788;28;20052;-76
2022/11/19 06:16:27;;;;;;;24.15;17.98;;;;;;;9.46;100.00;99824.00;5000623;28;20049;-75
2022/11/19 06:18:53;;;;;;;25.23;16.92;;;;;;;8.85;100.00;99753.59;5020401;28;20029;-75
2022/11/19 06:21:19;;;;;;;21.90;15.95;;;;;;;9.34;100.00;99831.03;4998113;28;20077;-75
2022/11/19 06:23:44;;;;;;;20.50;15.00;;;;;;;8.92;100.00;99742.25;5001579;28;20117;-75
2022/11/19 06:26:10;;;;;;;19.58;14.75;;;;;;;9.44;100.00;99840.59;5004172;28;20045;-75
2022/11/19 06:28:35;;;;;;;19.85;15.73;;;;;;;9.45;100.00;99840.56;4992181;28;20042;-74
2022/11/19 06:31:02;;;;;;;17.70;14.18;;;;;;;9.62;100.00;99871.06;4982221;28;20061;-75
2022/11/19 06:33:27;;;;;;;22.38;15.23;;;;;;;8.69;100.00;99733.59;5008374;28;20057;-76
2022/11/19 06:35:52;;;;;;;22.50;14.30;;;;;;;9.62;100.00;99876.28;4998440;28;20049;-76
2022/11/19 06:38:18;;;;;;;19.90;15.48;;;;;;;9.53;100.00;99874.59;4990139;28;20081;-74
2022/11/19 06:40:47;;;;;;;17.63;14.40;;;;;;;9.18;100.00;99794.47;5006820;28;20100;-75
2022/11/19 06:43:13;;;;;;;22.80;14.52;;;;;;;9.38;100.00;99853.72;5008051;28;20112;-73
2022/11/19 06:45:40;;;;;;;18.55;13.02;;;;;;;8.97;100.00;99782.34;5008197;28;20109;-76
2022/11/19 06:48:05;;;;;;;16.67;14.35;;;;;;;9.08;100.00;99800.59;5000688;28;20060;-76
2022/11/19 06:50:31;;;;;;;17.98;12.38;;;;;;;9.86;100.00;99931.19;5001783;28;20046;-76
2022/11/19 06:52:56;;;;;;;16.42;14.50;;;;;;;9.18;100.00;99818.03;5020502;28;20053;-75
2022/11/19 06:55:22;;;;;;;15.02;13.07;;;;;;;9.09;100.00;99816.28;5011326;28;20064;-75
2022/11/19 06:57:47;;;;;;;16.23;12.40;;;;;;;9.76;100.00;99926.00;5008139;28;20069;-75
2022/11/19 07:00:13;;;;;;;15.85;12.68;;;;;;;9.91;100.00;99952.16;4989100;28;20050;-75
2022/11/19 07:02:39;;;;;;;16.25;12.07;;;;;;;9.46;100.00;99872.91;5012157;28;20046;-75
2022/11/19 07:05:06;;;;;;;15.73;13.70;;;;;;;9.42;100.00;99882.50;5027735;28;20049;-77
2022/11/19 07:07:32;;;;;;;18.38;12.25;;;;;;;9.75;100.00;99951.34;5025597;28;20834;-76
2022/11/19 07:09:58;;;;;;;18.85;15.15;;;;;;;9.23;100.00;99858.13;5002430;28;20098;-76
2022/11/19 07:12:23;;;;;;;15.88;13.90;;;;;;;9.43;100.00;99862.41;5002188;28;20046;-75
2022/11/19 07:14:49;;;;;;;16.35;13.52;;;;;;;9.58;100.00;99877.22;5009097;28;20042;-76
2022/11/19 07:17:14;;;;;;;20.15;14.60;;;;;;;10.24;100.00;100000.91;5009047;28;20796;-76
2022/11/19 07:19:40;;;;;;;17.88;13.30;;;;;;;9.46;100.00;99881.63;5008177;28;20057;-75
2022/11/19 07:22:05;;;;;;;21.83;12.18;;;;;;;9.31;100.00;99873.81;5009024;28;20038;-75
2022/11/19 07:24:31;;;;;;;16.23;12.30;;;;;;;9.45;100.00;99889.47;5008933;28;20707;-75
2022/11/19 07:26:56;;;;;;;17.42;11.90;;;;;;;10.29;100.00;100008.78;4996833;28;20433;-75
2022/11/19 07:29:22;;;;;;;17.45;13.13;;;;;;;10.20;100.00;100000.94;5008613;28;20054;-75
2022/11/19 07:31:49;;;;;;;15.88;13.15;;;;;;;9.75;100.00;99909.41;5018268;28;20439;-74
2022/11/19 07:34:15;;;;;;;18.20;12.45;;;;;;;9.68;100.00;99892.84;5015945;28;20065;-76
2022/11/19 07:36:41;;;;;;;15.38;11.25;;;;;;;10.37;99.25;100006.97;4993377;28;20042;-76
2022/11/19 07:39:07;;;;;;;14.93;11.68;;;;;;;9.79;98.85;99923.38;4990931;28;20037;-76
2022/11/19 07:44:17;;;;;;;15.90;12.48;;;;;;;10.44;98.88;99997.31;5006993;28;20044;-74
2022/11/19 07:46:42;;;;;;;14.13;12.35;;;;;;;9.97;98.54;99897.06;5023345;28;20038;-74
2022/11/19 07:49:08;;;;;;;17.42;12.05;;;;;;;10.57;98.27;100026.09;5010162;28;20128;-74
2022/11/19 07:51:33;;;;;;;14.20;10.57;;;;;;;10.70;97.72;100037.41;5007998;28;20117;-74
2022/11/19 07:53:59;;;;;;;23.25;11.77;;;;;;;10.74;97.21;100018.09;5027794;28;20068;-74
2022/11/19 07:56:24;;;;;;;17.77;11.55;;;;;;;10.72;97.22;100030.38;4991060;28;20065;-74
2022/11/19 07:58:50;;;;;;;14.90;10.95;;;;;;;10.57;97.06;100007.72;4988578;28;20055;-77
2022/11/19 08:01:21;;;;;;;20.63;9.50;;;;;;;10.76;96.79;100053.09;4989325;28;20414;-78
2022/11/19 08:03:49;;;;;;;13.65;10.90;;;;;;;10.12;96.82;99925.81;5000302;28;20561;-75
2022/11/19 08:06:16;;;;;;;15.13;12.20;;;;;;;10.63;96.33;100040.94;5003141;28;20053;-76
2022/11/19 08:08:42;;;;;;;13.80;10.68;;;;;;;10.85;96.53;100062.66;5008341;28;20765;-76
2022/11/19 08:11:09;;;;;;;13.63;10.65;;;;;;;10.66;96.49;100056.66;5005856;28;20056;-75
2022/11/19 08:13:35;;;;;;;11.82;9.90;;;;;;;10.19;96.28;99957.25;5027048;28;20049;-76
2022/11/19 08:16:03;;;;;;;13.95;10.65;;;;;;;10.31;96.10;99973.78;5016232;28;20037;-75
2022/11/19 08:18:30;;;;;;;13.35;9.77;;;;;;;10.87;94.90;100073.16;4987014;28;20573;-76
2022/11/19 08:21:02;;;;;;;14.45;9.13;;;;;;;10.88;94.30;100065.25;5003344;28;20081;-75
2022/11/19 08:23:27;;;;;;;12.15;9.65;;;;;;;10.38;94.61;99973.78;5003121;28;20053;-76
2022/11/19 08:25:52;;;;;;;13.43;11.55;;;;;;;11.03;93.96;100103.66;4989639;28;20446;-75
2022/11/19 08:28:18;;;;;;;11.40;8.48;;;;;;;10.54;93.40;99993.78;5015996;28;20595;-76
2022/11/19 08:30:44;;;;;;;14.25;9.48;;;;;;;11.36;92.94;100120.94;5000647;28;20382;-76
2022/11/19 08:33:10;;;;;;;14.60;8.90;;;;;;;11.23;92.69;100100.88;5000993;28;20124;-74
2022/11/19 08:35:35;;;;;;;11.13;8.75;;;;;;;10.67;92.09;100013.78;5000039;28;20047;-74
2022/11/19 08:38:00;;;;;;;14.25;8.15;;;;;;;11.26;92.20;100134.13;5001770;28;20058;-74
2022/11/19 08:40:26;;;;;;;15.95;8.43;;;;;;;11.49;91.74;100134.81;4997851;28;20213;-74
2022/11/19 08:43:01;;;;;;;10.65;8.43;;;;;;;11.42;91.28;100159.41;5001227;28;20761;-73
2022/11/19 08:45:29;;;;;;;11.73;7.35;;;;;;;11.56;91.08;100143.53;4972709;28;20035;-72
2022/11/19 08:47:58;;;;;;;10.85;8.02;;;;;;;10.92;90.75;100035.47;5001753;28;20115;-74
2022/11/19 08:50:24;;;;;;;13.07;7.68;;;;;;;11.60;90.16;100159.25;5005884;28;20541;-74
2022/11/19 08:52:57;;;;;;;11.93;7.72;;;;;;;11.25;89.92;100057.09;4999202;28;20054;-75
2022/11/19 08:55:23;;;;;;;13.40;9.15;;;;;;;11.73;89.70;100141.66;5003920;28;20073;-76
2022/11/19 08:57:49;;;;;;;11.52;6.90;;;;;;;11.77;88.66;100163.50;4993908;28;20564;-73
2022/11/19 09:00:15;;;;;;;9.88;6.45;;;;;;;11.22;88.51;100058.91;4996837;28;20045;-74
2022/11/19 09:02:41;;;;;;;8.02;6.50;;;;;;;11.90;88.07;100159.03;4997501;28;20061;-75
2022/11/19 09:05:07;;;;;;;9.25;6.28;;;;;;;11.47;87.95;100070.03;5000599;28;20074;-72
2022/11/19 09:07:32;;;;;;;9.82;6.85;;;;;;;12.15;87.59;100171.06;5007518;28;20149;-78
2022/11/19 09:09:57;;;;;;;8.85;6.13;;;;;;;11.26;87.24;100045.72;5001075;28;20042;-79
2022/11/19 09:12:23;;;;;;;17.10;5.95;;;;;;;12.15;86.83;100185.94;5001542;28;20034;-77
2022/11/19 09:14:49;;;;;;;8.90;6.60;;;;;;;12.18;nan;100181.53;5004227;28;20049;-76
2022/11/19 09:17:15;;;;;;;12.32;5.93;;;;;;;12.14;86.12;100163.19;5003461;28;20046;-73
2022/11/19 09:19:41;;;;;;;7.97;6.00;;;;;;;11.59;86.42;100062.94;5004141;28;20060;-80
2022/11/19 09:22:06;;;;;;;9.10;5.65;;;;;;;11.98;86.01;100150.19;5006958;28;20042;-76
2022/11/19 09:24:32;;;;;;;16.77;5.57;;;;;;;12.13;85.33;100169.34;5007128;28;20716;-76
2022/11/19 09:26:57;;;;;;;7.88;5.18;;;;;;;11.73;85.42;100103.94;4982749;28;20054;-76
2022/11/19 09:29:23;;;;;;;7.32;5.53;;;;;;;12.29;85.42;100172.66;4997809;28;20042;-76
2022/11/19 09:31:48;;;;;;;10.57;5.40;;;;;;;11.90;85.36;100082.81;5000041;28;20042;-81
2022/11/19 09:34:14;;;;;;;9.95;7.13;;;;;;;11.89;84.15;100060.88;4988681;28;20038;-79
2022/11/19 09:36:40;;;;;;;8.98;5.82;;;;;;;12.66;84.00;100173.97;4997811;28;20500;-80
2022/11/19 09:39:06;;;;;;;16.23;5.85;;;;;;;12.62;83.72;100180.19;5002872;28;20117;-75
2022/11/19 09:42:09;;;;;;;8.48;5.95;;;;;;;12.70;83.52;100179.22;5018111;28;20553;-79
2022/11/19 09:44:57;;;;;;;9.80;5.22;;;;;;;12.65;83.28;100163.47;5026097;28;20041;-76
2022/11/19 09:48:18;;;;;;;6.40;4.20;;;;;;;12.90;82.91;100203.53;5026297;28;20097;-74
2022/11/19 09:51:12;;;;;;;8.50;5.40;;;;;;;12.98;82.07;100200.78;4993858;28;20042;-79
2022/11/19 09:54:02;;;;;;;8.20;5.05;;;;;;;12.28;81.40;100103.41;5020504;28;20136;-77
2022/11/19 09:56:37;;;;;;;8.23;4.40;;;;;;;13.00;81.71;100212.19;4993480;28;20053;-81
2022/11/19 09:59:21;;;;;;;8.65;5.15;;;;;;;12.97;81.04;100191.13;5002579;28;20053;-80
2022/11/19 10:01:46;;;;;;;8.25;4.93;;;;;;;12.18;81.34;100093.88;5007554;28;20818;-78
2022/11/19 10:04:12;;;;;;;7.15;4.72;;;;;;;12.79;80.88;100197.53;4995331;28;20058;-80
2022/11/19 10:06:55;;;;;;;5.45;4.32;;;;;;;13.10;80.81;100221.69;4998315;28;20451;-80
2022/11/19 10:09:52;;;;;;;8.52;5.25;;;;;;;13.10;80.81;100230.47;5011697;28;20054;-83
2022/11/19 10:12:26;;;;;;;8.77;5.32;;;;;;;13.10;80.87;100222.56;4972034;28;20153;-82
2022/11/19 10:14:57;;;;;;;12.38;5.55;;;;;;;13.09;80.63;100223.47;5002760;28;20054;-81
2022/11/19 10:17:26;;;;;;;11.52;5.15;;;;;;;13.22;80.69;100218.03;4978728;28;20053;-76
2022/11/19 10:20:27;;;;;;;7.00;4.43;;;;;;;13.44;80.01;100218.63;5006048;28;20034;-79
2022/11/19 10:23:17;;;;;;;6.57;4.38;;;;;;;13.47;79.50;100190.44;5005987;28;20065;-75
2022/11/19 10:25:48;;;;;;;8.52;5.00;;;;;;;13.86;78.31;100224.09;4998483;28;20046;-79
2022/11/19 10:28:14;;;;;;;7.65;5.65;;;;;;;14.01;77.33;100217.72;5000393;28;20046;-81
2022/11/19 10:30:46;;;;;;;7.28;5.25;;;;;;;14.11;77.26;100200.81;4986555;28;20405;-79
2022/11/19 10:33:26;;;;;;;6.60;4.70;;;;;;;14.25;76.49;100205.84;4989947;28;20063;-78
2022/11/19 10:36:00;;;;;;;6.38;4.38;;;;;;;13.99;76.29;100201.03;4997904;28;20054;-78
2022/11/19 10:38:53;;;;;;;7.10;4.47;;;;;;;13.70;76.18;100110.13;5006263;28;20065;-77
2022/11/19 10:41:53;;;;;;;8.00;4.35;;;;;;;14.63;75.34;100217.47;5023317;28;20041;-76
2022/11/19 10:44:36;;;;;;;8.40;5.43;;;;;;;14.70;74.28;100232.28;5029369;28;20140;-78
2022/11/19 10:47:19;;;;;;;7.75;5.15;;;;;;;14.71;74.74;100229.63;5029038;28;20069;-78
2022/11/19 10:49:50;;;;;;;9.50;5.15;;;;;;;14.51;74.53;100200.94;5023002;28;20084;-78
2022/11/19 10:52:26;;;;;;;10.80;5.75;;;;;;;14.46;74.91;100237.13;5011508;28;20038;-76
2022/11/19 10:54:57;;;;;;;7.70;5.05;;;;;;;14.07;75.45;100141.97;5009510;28;20038;-79
2022/11/19 10:57:23;;;;;;;7.35;4.90;;;;;;;13.74;75.78;100180.34;5009701;28;20041;-77
2022/11/19 10:59:51;;;;;;;9.45;5.78;;;;;;;12.85;76.47;100077.19;5006784;28;20141;-77
2022/11/19 11:02:30;;;;;;;12.25;4.93;;;;;;;13.37;76.73;100138.78;4999420;28;20077;-77
2022/11/19 11:05:09;;;;;;;14.02;4.65;;;;;;;13.19;75.99;100121.47;5008899;28;20337;-78
2022/11/19 11:07:56;;;;;;;9.32;6.25;;;;;;;13.16;76.23;100123.25;5011031;28;20054;-78
2022/11/19 11:10:41;;;;;;;12.93;5.63;;;;;;;13.87;76.34;100242.56;5009206;28;20164;-77
2022/11/19 11:16:27;;;;;;;9.18;5.65;;;;;;;13.59;76.95;100192.03;5009443;28;20092;-78
2022/11/19 11:18:56;;;;;;;8.05;5.25;;;;;;;13.77;77.03;100219.88;5009348;28;20052;-77
2022/11/19 11:21:35;;;;;;;8.20;6.15;;;;;;;13.89;77.37;100231.97;5007900;28;20052;-77
2022/11/19 11:24:03;;;;;;;11.10;5.80;;;;;;;13.78;77.29;100240.06;4989338;28;20502;-77
2022/11/19 11:26:32;;;;;;;9.32;5.97;;;;;;;13.43;77.55;100137.81;4987927;28;20510;-77
2022/11/19 11:29:02;;;;;;;18.55;7.60;;;;;;;14.08;76.71;100220.22;4991218;28;20077;-77
2022/11/19 11:31:45;;;;;;;11.85;7.32;;;;;;;14.14;75.92;100187.56;4995545;28;20050;-78
2022/11/19 11:34:26;;;;;;;11.40;5.88;;;;;;;14.33;75.79;100225.06;4979150;28;20457;-77
2022/11/19 11:36:53;;;;;;;8.60;4.38;;;;;;;14.16;74.88;100241.19;4992540;28;20046;-78
2022/11/19 11:39:26;;;;;;;8.75;4.95;;;;;;;13.62;74.71;100089.13;4997456;28;20050;-78
2022/11/19 11:41:53;;;;;;;6.45;4.15;;;;;;;13.67;74.20;100065.31;5008248;28;20060;-77
2022/11/19 11:44:21;;;;;;;6.45;3.60;;;;;;;14.07;74.71;100186.81;5008885;28;20054;-78
2022/11/19 11:46:53;;;;;;;8.80;4.65;;;;;;;13.98;74.96;100147.41;5010488;28;20584;-77
2022/11/19 11:49:33;;;;;;;9.75;5.65;;;;;;;14.37;74.42;100221.44;5023959;28;20038;-79
2022/11/19 11:52:02;;;;;;;7.38;4.07;;;;;;;13.46;75.65;100104.38;5007779;28;20108;-76
2022/11/19 11:54:27;;;;;;;8.63;5.72;;;;;;;14.18;75.22;100222.69;5002955;28;20073;-79